Rockingham, NC

9:41 AM EDT on April 19, 2015 (GMT -0400)
Rockingham | | Change Station
CLOSE
Current Station
Airport
Location: Rockingham,
Elevation: 358 ft
Nearby Weather Stations

Elev 358 ft 34.89 °N, 79.76 °W | Updated 26 minutes ago

Overcast
Overcast
67 °F
Feels Like 67 °F
N
8
Wind Variable Wind from East

Today
High -- | Low -- °F
--% Chance of Precip.
Yesterday
High -- | Low -- °F
Precip. -- in
6:42 AM 7:54 PM
New Moon, 1% visible
Pressure 29.97 in
Visibility 10.0 miles
Clouds Scattered Clouds 500 ft
Scattered Clouds 900 ft
Overcast 8500 ft
Dew Point 64 °F
Humidity 90%
Rainfall 0.00 in
Snow Depth Not available.
UV 1 out of 12
Pollen 3.00 out of 12
Air Quality Not available.
Flu Activity Sporadic
METAR KRCZ 191315Z AUTO 10007KT 10SM SCT005 SCT009 OVC085 19/18 A2997 RMK AO2 T01940178

More Conditions Fewer Conditions

Pressure 29.97 in
Visibility 10.0 miles
Clouds Scattered Clouds 500 ft
Scattered Clouds 900 ft
Overcast 8500 ft
Dew Point 64 °F
Humidity 90%
Rainfall 0.00 in
Snow Depth Not available.
UV 1 out of 12
Pollen 3.00 out of 12
Air Quality Not available.
Flu Activity Sporadic
METAR KRCZ 191315Z AUTO 10007KT 10SM SCT005 SCT009 OVC085 19/18 A2997 RMK AO2 T01940178

More Conditions Fewer Conditions

10-Day Weather Forecast

Almanac

Astronomy

Apr. 19, 2015 Rise Set
Actual Time
Civil Twilight
Nautical Twilight
Astronomical Twilight
Moon
Length of Visible Light
Length of Day
Tomorrow will be .
, % of the Moon is Illuminated

Today's Extremes

State Highs State Lows

Community

WunderPhotos

Upload Photos

1,814,795 photos uploaded!

WunderBlogs® & News

Nearby

Air Quality

  Air Quality AQ Index Pollutant
Not available.

Snow Depth

Station Depth Elevation

Earthquake Activity

City Distance Mag. Time & Date
Minimum magnitude displayed is 2.5.

Coastal Water Temperatures

Place Temperature

Stations

Nearby Weather Stations

Station Location Temp. Windchill Dew Point Humidity Wind Precip. Elev Updated Type